This is the latest recevied weather packets stored in our database for station/object G6UYG-13. If no packets are shown the sender has not sent any weather packets the latest 1 day(s).
| Time | Temp. | Humidity | Pressure | Rain* | Wind** | Luminosity | Snow |
|---|---|---|---|---|---|---|---|
| 1778063430 | 12.22° C | 56% | 1013.3 hPa | 0 mm | - | 703 W/m² | - |
| 1778063010 | 12.22° C | 57% | 1013.3 hPa | 0 mm | - | 679 W/m² | - |
| 1778062590 | 12.22° C | 59% | 1013.4 hPa | 0 mm | - | 803 W/m² | - |
| 1778062170 | 11.67° C | 61% | 1013.4 hPa | 0 mm | - | 803 W/m² | - |
| 1778061817 | 11.11° C | 62% | 1013.4 hPa | 0 mm | - | 628 W/m² | - |
| 1778059650 | 10° C | 65% | 1013.5 hPa | 0 mm | - | 413 W/m² | - |
| 1778057658 | 8.89° C | 71% | 1013.6 hPa | 0 mm | - | 243 W/m² | - |
| 1778055451 | 8.33° C | 75% | 1013.6 hPa | 0 mm | - | 183 W/m² | - |
| 1778055031 | 7.78° C | 76% | 1013.6 hPa | 0 mm | - | 162 W/m² | - |
| 1778054611 | 7.78° C | 76% | 1013.6 hPa | 0 mm | - | 135 W/m² | - |
| 1778054191 | 7.78° C | 76% | 1013.6 hPa | 0 mm | - | 118 W/m² | - |
| 1778053771 | 7.78° C | 77% | 1013.6 hPa | 0 mm | - | 111 W/m² | - |
| 1778053351 | 7.78° C | 77% | 1013.5 hPa | 0 mm | - | 107 W/m² | - |
| 1778052931 | 7.78° C | 77% | 1013.6 hPa | 0 mm | - | 105 W/m² | - |
| 1778052511 | 7.78° C | 77% | 1013.6 hPa | 0 mm | - | 104 W/m² | - |
| 1778052091 | 7.78° C | 78% | 1013.6 hPa | 0 mm | - | 100 W/m² | - |
| 1778051671 | 7.78° C | 78% | 1013.5 hPa | 0 mm | - | 93 W/m² | - |
| 1778051251 | 7.78° C | 79% | 1013.5 hPa | 0 mm | - | 83 W/m² | - |
| 1778050411 | 7.78° C | 80% | 1013.4 hPa | 0 mm | - | 65 W/m² | - |
| 1778049991 | 7.78° C | 79% | 1013.4 hPa | 0 mm | - | 67 W/m² | - |
| 1778049571 | 7.78° C | 79% | 1013.2 hPa | 0 mm | - | 67 W/m² | - |
| 1778049151 | 7.78° C | 79% | 1013.2 hPa | 0 mm | - | 62 W/m² | - |
| 1778047891 | 7.22° C | 80% | 1013.2 hPa | 0 mm | - | 49 W/m² | - |
| 1778047051 | 7.22° C | 81% | 1013 hPa | 0 mm | - | 49 W/m² | - |
| 1778045372 | 7.22° C | 83% | 1013.1 hPa | 0 mm | - | 23 W/m² | - |
* Rain latest hour (hover to see other rain measurements)
** Current wind speed in m/s (hover to see current wind gust speed)